createdAt,value
2018-05-29T00:01:36.338Z,63.91
2018-05-29T00:04:04.045Z,63.72
2018-05-29T00:06:31.677Z,63.23
2018-05-29T00:08:59.370Z,62.97
2018-05-29T00:11:26.977Z,63.43
2018-05-29T00:13:54.624Z,64.46
2018-05-29T00:16:22.216Z,64.56
2018-05-29T00:18:49.879Z,65.08
2018-05-29T00:21:17.545Z,65.23
2018-05-29T00:23:45.204Z,65.79
2018-05-29T00:26:12.812Z,66.33
2018-05-29T00:28:40.509Z,66.22
2018-05-29T00:31:08.129Z,65.54
2018-05-29T00:33:35.753Z,65.42
2018-05-29T00:36:03.352Z,65.35
2018-05-29T00:38:31.045Z,65.32
2018-05-29T00:40:58.873Z,65.33
2018-05-29T00:43:26.527Z,65.67
2018-05-29T00:45:54.124Z,65.91
2018-05-29T00:48:21.738Z,66.34
2018-05-29T00:50:49.417Z,66.15
2018-05-29T00:53:17.018Z,66.26
2018-05-29T00:55:44.677Z,66.08
2018-05-29T00:58:12.280Z,66.30
2018-05-29T01:00:39.928Z,67.00
2018-05-29T01:03:07.529Z,67.69
2018-05-29T01:05:35.177Z,68.90
2018-05-29T01:08:02.790Z,70.28
2018-05-29T01:10:30.425Z,70.55
2018-05-29T01:12:58.049Z,70.23
2018-05-29T01:15:25.688Z,69.82
2018-05-29T01:17:53.284Z,69.76
2018-05-29T01:20:20.911Z,69.46
2018-05-29T01:22:48.508Z,69.17
2018-05-29T01:25:16.145Z,69.14
2018-05-29T01:27:43.741Z,68.66
2018-05-29T01:30:11.393Z,68.32
2018-05-29T01:32:39.008Z,68.13
2018-05-29T01:35:06.632Z,68.15
2018-05-29T01:37:34.284Z,69.34
2018-05-29T01:40:01.881Z,70.67
2018-05-29T01:42:29.512Z,71.42
2018-05-29T01:44:57.119Z,71.76
2018-05-29T01:47:24.772Z,72.17
2018-05-29T01:49:52.362Z,71.79
2018-05-29T01:52:20.007Z,71.24
2018-05-29T01:54:47.604Z,70.93
2018-05-29T01:57:15.236Z,70.69
2018-05-29T01:59:42.841Z,70.56
2018-05-29T02:02:10.596Z,70.35
2018-05-29T02:04:38.257Z,70.29
2018-05-29T02:07:05.840Z,70.03
2018-05-29T02:09:33.429Z,69.90
2018-05-29T02:12:01.057Z,69.83
2018-05-29T02:14:28.668Z,70.25
2018-05-29T02:16:56.329Z,70.47
2018-05-29T02:19:23.940Z,70.34
2018-05-29T02:21:51.601Z,70.82
2018-05-29T02:24:19.216Z,70.66
2018-05-29T02:26:46.813Z,70.53
2018-05-29T02:29:14.458Z,70.77
2018-05-29T02:31:42.093Z,71.19
2018-05-29T02:34:09.747Z,70.96
2018-05-29T02:36:37.352Z,71.37
2018-05-29T02:39:04.982Z,70.93
2018-05-29T02:41:32.584Z,70.87
2018-05-29T02:44:00.236Z,71.21
2018-05-29T02:46:27.854Z,71.55
2018-05-29T02:48:55.492Z,72.21
2018-05-29T02:51:23.097Z,72.36
2018-05-29T02:53:50.736Z,72.39
2018-05-29T02:56:18.493Z,72.89
2018-05-29T02:58:46.132Z,73.14
2018-05-29T03:01:13.742Z,73.26
2018-05-29T03:03:41.388Z,72.84
2018-05-29T03:06:09.025Z,72.42
2018-05-29T03:08:36.661Z,72.82
2018-05-29T03:11:04.269Z,73.14
2018-05-29T03:13:31.868Z,74.08
2018-05-29T03:15:59.508Z,74.99
2018-05-29T03:18:27.110Z,75.81
2018-05-29T03:20:54.789Z,75.76
2018-05-29T03:23:22.421Z,75.61
2018-05-29T03:25:50.061Z,75.08
2018-05-29T03:28:17.678Z,74.99
2018-05-29T03:30:45.329Z,74.28
2018-05-29T03:33:12.921Z,73.83
2018-05-29T03:35:40.560Z,73.46
2018-05-29T03:38:08.191Z,73.22
2018-05-29T03:40:35.828Z,73.25
2018-05-29T03:43:03.658Z,73.26
2018-05-29T03:45:31.326Z,73.26
2018-05-29T03:47:58.924Z,72.98
2018-05-29T03:50:26.567Z,72.71
2018-05-29T03:52:54.185Z,72.38
2018-05-29T03:55:21.900Z,72.44
2018-05-29T03:57:49.498Z,73.82
2018-05-29T04:00:17.190Z,74.65
2018-05-29T04:02:44.800Z,74.46
2018-05-29T04:05:12.456Z,74.12
2018-05-29T04:07:40.056Z,74.17
2018-05-29T04:10:07.656Z,74.18
2018-05-29T04:12:35.337Z,73.79
2018-05-29T04:15:02.933Z,73.55
2018-05-29T04:17:30.593Z,73.85
2018-05-29T04:19:58.225Z,73.89
2018-05-29T04:22:25.889Z,73.66
2018-05-29T04:24:53.540Z,74.57
2018-05-29T04:27:21.176Z,74.31
2018-05-29T04:29:48.792Z,73.52
2018-05-29T04:32:16.529Z,73.07
2018-05-29T04:34:44.151Z,72.29
2018-05-29T04:37:11.797Z,71.94
2018-05-29T04:39:39.436Z,71.74
2018-05-29T04:42:07.073Z,71.39
2018-05-29T04:44:34.824Z,71.17
2018-05-29T04:47:02.474Z,71.60
2018-05-29T04:49:30.096Z,72.41
2018-05-29T04:51:57.751Z,73.36
2018-05-29T04:54:25.366Z,73.08
2018-05-29T04:56:53.153Z,72.68
2018-05-29T04:59:20.761Z,72.77
2018-05-29T05:01:48.388Z,73.02
2018-05-29T05:04:16.002Z,73.47
2018-05-29T05:06:43.624Z,73.02
2018-05-29T05:09:11.275Z,73.16
2018-05-29T05:11:38.877Z,73.32
2018-05-29T05:14:06.583Z,73.59
2018-05-29T05:16:34.189Z,73.74
2018-05-29T05:19:01.826Z,73.86
2018-05-29T05:21:29.439Z,73.81
2018-05-29T05:23:57.145Z,74.22
2018-05-29T05:26:24.756Z,74.55
2018-05-29T05:28:52.464Z,74.46
2018-05-29T05:31:20.087Z,74.53
2018-05-29T05:33:47.725Z,75.03
2018-05-29T05:36:15.340Z,74.79
2018-05-29T05:38:43.185Z,74.38
2018-05-29T05:41:10.816Z,74.10
2018-05-29T05:43:38.453Z,74.60
2018-05-29T05:46:06.095Z,74.86
2018-05-29T05:48:33.686Z,74.67
2018-05-29T05:51:01.346Z,74.43
2018-05-29T05:53:28.955Z,74.85
2018-05-29T05:55:56.598Z,74.04
2018-05-29T05:58:24.230Z,73.88
2018-05-29T06:00:51.837Z,73.14
2018-05-29T06:03:19.573Z,72.35
2018-05-29T06:05:47.201Z,71.97
2018-05-29T06:08:14.875Z,72.14
2018-05-29T06:10:42.524Z,71.79
2018-05-29T06:13:10.121Z,71.52
2018-05-29T06:15:37.720Z,70.83
2018-05-29T06:18:05.518Z,70.39
2018-05-29T06:20:33.157Z,69.87
2018-05-29T06:23:00.892Z,69.33
2018-05-29T06:25:28.487Z,68.84
2018-05-29T06:27:56.175Z,68.74
2018-05-29T06:30:23.772Z,67.25
2018-05-29T06:32:51.441Z,67.54
2018-05-29T06:35:19.015Z,66.95
2018-05-29T06:37:46.693Z,67.33
2018-05-29T06:40:14.298Z,66.03
2018-05-29T06:42:41.942Z,65.45
2018-05-29T06:45:09.588Z,65.30
2018-05-29T06:47:37.289Z,64.75
2018-05-29T06:50:06.605Z,64.28
2018-05-29T06:52:34.212Z,63.99
2018-05-29T06:55:01.885Z,64.43
2018-05-29T06:57:29.448Z,64.16
2018-05-29T06:59:57.156Z,63.93
2018-05-29T07:02:24.775Z,63.64
2018-05-29T07:04:52.401Z,63.58
2018-05-29T07:07:20.040Z,62.59
2018-05-29T07:09:47.690Z,60.93
2018-05-29T07:12:15.301Z,60.37
2018-05-29T07:14:42.941Z,60.38
2018-05-29T07:17:10.594Z,60.20
2018-05-29T07:19:38.241Z,60.47
2018-05-29T07:22:06.064Z,60.34
2018-05-29T07:24:33.705Z,58.30
2018-05-29T07:27:01.430Z,58.24
2018-05-29T07:29:29.063Z,58.80
2018-05-29T07:31:56.661Z,58.57
2018-05-29T07:34:24.312Z,57.75
2018-05-29T07:36:51.920Z,57.35
2018-05-29T07:39:19.514Z,57.33
2018-05-29T07:41:47.188Z,57.42
2018-05-29T07:44:14.873Z,57.42
2018-05-29T07:46:42.544Z,57.48
2018-05-29T07:49:10.167Z,57.05
2018-05-29T07:51:38.035Z,57.13
2018-05-29T07:54:05.649Z,57.72
2018-05-29T07:56:33.302Z,57.93
2018-05-29T07:59:00.911Z,57.53
2018-05-29T08:01:28.636Z,57.70
2018-05-29T08:03:56.271Z,57.20
2018-05-29T08:06:23.889Z,56.90
2018-05-29T08:08:51.481Z,57.12
2018-05-29T08:11:19.117Z,56.23
2018-05-29T08:13:46.733Z,54.96
2018-05-29T08:16:14.376Z,54.73
2018-05-29T08:18:41.976Z,52.75
2018-05-29T08:21:09.622Z,52.57
2018-05-29T08:23:37.228Z,53.84
2018-05-29T08:26:04.865Z,54.68
2018-05-29T08:28:32.479Z,54.44
2018-05-29T08:31:00.142Z,54.40
2018-05-29T08:33:27.732Z,54.97
2018-05-29T08:35:55.432Z,53.13
2018-05-29T08:38:23.073Z,53.49
2018-05-29T08:40:50.672Z,53.82
2018-05-29T08:43:18.304Z,52.21
2018-05-29T08:45:45.915Z,51.60
2018-05-29T08:48:13.561Z,51.77
2018-05-29T08:50:41.157Z,51.68
2018-05-29T08:53:08.818Z,51.57
2018-05-29T08:55:36.490Z,51.88
2018-05-29T08:58:04.128Z,51.06
2018-05-29T09:00:31.769Z,51.45
2018-05-29T09:02:59.402Z,51.02
2018-05-29T09:05:27.016Z,50.73
2018-05-29T09:07:54.714Z,50.33
2018-05-29T09:10:22.312Z,50.90
2018-05-29T09:12:49.941Z,50.69
2018-05-29T09:15:17.556Z,50.60
2018-05-29T09:17:45.165Z,50.15
2018-05-29T09:20:12.812Z,49.99
2018-05-29T09:22:40.513Z,50.16
2018-05-29T09:25:08.164Z,50.60
2018-05-29T09:27:35.782Z,50.17
2018-05-29T09:30:03.417Z,49.38
2018-05-29T09:32:31.029Z,49.49
2018-05-29T09:34:58.686Z,48.97
2018-05-29T09:37:26.324Z,48.87
2018-05-29T09:39:53.952Z,48.42
2018-05-29T09:42:21.555Z,49.18
2018-05-29T09:44:49.298Z,49.60
2018-05-29T09:47:16.949Z,48.97
2018-05-29T09:49:44.587Z,48.19
2018-05-29T09:52:12.190Z,49.03
2018-05-29T09:54:39.840Z,48.24
2018-05-29T09:57:07.437Z,47.66
2018-05-29T09:59:35.037Z,47.37
2018-05-29T10:02:02.689Z,47.31
2018-05-29T10:04:30.280Z,48.01
2018-05-29T10:06:57.971Z,46.66
2018-05-29T10:09:25.532Z,47.16
2018-05-29T10:11:53.184Z,46.77
2018-05-29T10:14:20.849Z,47.62
2018-05-29T10:16:48.504Z,47.35
2018-05-29T10:19:16.154Z,48.11
2018-05-29T10:21:43.805Z,47.05
2018-05-29T10:24:11.533Z,46.93
2018-05-29T10:26:39.157Z,46.34
2018-05-29T10:29:06.781Z,46.96
2018-05-29T10:31:34.424Z,47.55
2018-05-29T10:34:02.038Z,47.50
2018-05-29T10:36:29.696Z,48.41
2018-05-29T10:38:57.363Z,47.07
2018-05-29T10:41:24.992Z,48.15
2018-05-29T10:43:52.638Z,48.26
2018-05-29T10:46:20.257Z,47.95
2018-05-29T10:48:47.901Z,47.89
2018-05-29T10:51:15.501Z,48.53
2018-05-29T10:53:43.156Z,48.39
2018-05-29T10:56:10.789Z,47.98
2018-05-29T10:58:38.417Z,48.12
2018-05-29T11:01:06.123Z,47.88
2018-05-29T11:03:33.776Z,47.52
2018-05-29T11:06:01.389Z,47.78
2018-05-29T11:08:29.031Z,46.56
2018-05-29T11:10:56.716Z,45.71
2018-05-29T11:13:24.349Z,45.57
2018-05-29T11:15:51.964Z,45.11
2018-05-29T11:18:19.621Z,44.07
2018-05-29T11:20:47.230Z,43.88
2018-05-29T11:23:14.876Z,43.60
2018-05-29T11:25:42.606Z,42.95
2018-05-29T11:28:10.257Z,43.98
2018-05-29T11:30:37.876Z,43.60
2018-05-29T11:33:05.525Z,43.01
2018-05-29T11:35:33.125Z,42.95
2018-05-29T11:38:00.740Z,43.19
2018-05-29T11:40:28.382Z,42.78
2018-05-29T11:42:55.999Z,42.67
2018-05-29T11:45:23.639Z,42.83
2018-05-29T11:47:51.251Z,41.07
2018-05-29T11:50:19.009Z,40.83
2018-05-29T11:52:46.621Z,40.86
2018-05-29T11:55:14.266Z,40.29
2018-05-29T11:57:41.896Z,39.63
2018-05-29T12:00:09.541Z,39.64
2018-05-29T12:02:37.213Z,40.72
2018-05-29T12:05:04.826Z,39.64
2018-05-29T12:07:32.458Z,40.42
2018-05-29T12:10:00.063Z,39.87
2018-05-29T12:12:27.700Z,39.29
2018-05-29T12:14:55.310Z,39.17
2018-05-29T12:17:22.948Z,39.31
2018-05-29T12:19:50.566Z,39.92
2018-05-29T12:22:18.261Z,41.22
2018-05-29T12:24:45.846Z,40.76
2018-05-29T12:27:13.518Z,39.62
2018-05-29T12:29:41.190Z,40.56
2018-05-29T12:32:08.835Z,40.44
2018-05-29T12:34:36.456Z,39.70
2018-05-29T12:37:04.085Z,40.97
2018-05-29T12:39:31.750Z,39.27
2018-05-29T12:41:59.510Z,39.12
2018-05-29T12:44:27.111Z,39.93
2018-05-29T12:46:54.702Z,39.90
2018-05-29T12:49:22.342Z,38.67
2018-05-29T12:51:49.962Z,38.33
2018-05-29T12:54:17.597Z,38.96
2018-05-29T12:56:45.193Z,38.71
2018-05-29T12:59:12.955Z,40.30
2018-05-29T13:01:40.488Z,40.55
2018-05-29T13:04:08.150Z,40.51
2018-05-29T13:06:35.764Z,40.75
2018-05-29T13:09:03.400Z,38.95
2018-05-29T13:11:31.877Z,38.68
2018-05-29T13:13:59.559Z,38.14
2018-05-29T13:16:27.176Z,38.01
2018-05-29T13:18:54.776Z,38.13
2018-05-29T13:21:22.425Z,37.66
2018-05-29T13:23:50.072Z,38.35
2018-05-29T13:26:17.736Z,37.58
2018-05-29T13:28:45.904Z,37.45
2018-05-29T13:31:13.691Z,38.16
2018-05-29T13:33:41.396Z,39.54
2018-05-29T13:36:09.226Z,39.40
2018-05-29T13:38:36.845Z,39.88
2018-05-29T13:41:04.569Z,39.93
2018-05-29T13:43:32.277Z,40.05
2018-05-29T13:45:59.984Z,39.89
2018-05-29T13:48:27.684Z,39.65
2018-05-29T13:50:55.425Z,40.11
2018-05-29T13:53:23.029Z,39.53
2018-05-29T13:55:50.715Z,39.00
2018-05-29T13:58:18.314Z,39.71
2018-05-29T14:00:45.949Z,40.27
2018-05-29T14:03:13.600Z,40.97
2018-05-29T14:05:41.326Z,47.23
2018-05-29T14:08:08.976Z,50.94
2018-05-29T14:10:36.594Z,54.66
2018-05-29T14:13:04.308Z,56.68
2018-05-29T14:15:31.937Z,57.00
2018-05-29T14:17:59.631Z,56.69
2018-05-29T14:20:27.228Z,55.33
2018-05-29T14:22:55.504Z,54.60
2018-05-29T14:25:23.178Z,53.71
2018-05-29T14:27:50.931Z,52.86
2018-05-29T14:30:18.534Z,53.33
2018-05-29T14:32:46.201Z,53.30
2018-05-29T14:35:13.819Z,51.92
2018-05-29T14:37:41.420Z,52.13
2018-05-29T14:40:09.118Z,52.47
2018-05-29T14:42:36.736Z,53.38
2018-05-29T14:45:04.366Z,53.97
2018-05-29T14:47:32.856Z,56.39
2018-05-29T14:50:00.510Z,54.90
2018-05-29T14:52:28.119Z,56.17
2018-05-29T14:54:55.745Z,58.24
2018-05-29T14:57:23.363Z,62.27
2018-05-29T14:59:51.077Z,66.83
2018-05-29T15:02:18.697Z,71.85
2018-05-29T15:04:46.345Z,76.55
2018-05-29T15:07:13.960Z,77.90
2018-05-29T15:09:41.616Z,77.46
2018-05-29T15:12:09.277Z,79.18
2018-05-29T15:14:36.934Z,78.75
2018-05-29T15:17:04.545Z,80.05
2018-05-29T15:19:32.209Z,77.97
2018-05-29T15:21:59.801Z,77.77
2018-05-29T15:24:27.429Z,77.48
2018-05-29T15:26:55.080Z,77.22
2018-05-29T15:29:22.687Z,76.85
2018-05-29T15:31:50.341Z,79.83
2018-05-29T15:34:17.940Z,77.36
2018-05-29T15:36:45.588Z,79.20
2018-05-29T15:39:13.460Z,80.10
2018-05-29T15:41:41.107Z,78.46
2018-05-29T15:44:08.740Z,80.67
2018-05-29T15:46:36.447Z,79.98
2018-05-29T15:49:04.066Z,80.68
2018-05-29T15:51:31.721Z,79.50
2018-05-29T15:53:59.345Z,78.49
2018-05-29T15:56:27.077Z,77.63
2018-05-29T15:58:54.677Z,75.74
2018-05-29T16:01:22.288Z,74.86
2018-05-29T16:03:49.938Z,75.94
2018-05-29T16:06:17.562Z,76.65
2018-05-29T16:08:45.345Z,76.42
2018-05-29T16:11:12.962Z,76.76
2018-05-29T16:13:40.600Z,76.19
2018-05-29T16:16:08.297Z,76.08
2018-05-29T16:18:36.011Z,76.70
2018-05-29T16:21:03.654Z,76.52
2018-05-29T16:23:31.548Z,76.43
2018-05-29T16:25:59.212Z,77.17
2018-05-29T16:28:26.843Z,79.09
2018-05-29T16:30:54.441Z,79.30
2018-05-29T16:33:22.095Z,80.66
2018-05-29T16:35:49.733Z,80.60
2018-05-29T16:38:17.444Z,80.34
2018-05-29T16:40:45.102Z,79.50
2018-05-29T16:43:12.650Z,78.05
2018-05-29T16:45:40.314Z,77.37
2018-05-29T16:48:07.948Z,77.91
2018-05-29T16:50:35.802Z,77.05
2018-05-29T16:53:03.387Z,77.28
2018-05-29T16:55:31.033Z,77.39
2018-05-29T16:57:58.638Z,77.58
2018-05-29T17:00:26.293Z,78.26
2018-05-29T17:02:53.904Z,79.04
2018-05-29T17:05:21.609Z,79.52
2018-05-29T17:07:49.247Z,79.96
2018-05-29T17:10:16.892Z,79.10
2018-05-29T17:12:44.525Z,78.90
2018-05-29T17:15:12.342Z,78.25
2018-05-29T17:17:39.970Z,78.00
2018-05-29T17:20:07.661Z,77.35
2018-05-29T17:22:35.352Z,76.90
2018-05-29T17:25:02.925Z,76.86
2018-05-29T17:27:30.592Z,76.44
2018-05-29T17:29:58.204Z,76.97
2018-05-29T17:32:25.847Z,76.25
2018-05-29T17:34:53.483Z,76.47
2018-05-29T17:37:21.149Z,76.15
2018-05-29T17:39:48.781Z,76.90
2018-05-29T17:42:16.470Z,76.69
2018-05-29T17:44:44.087Z,77.10
2018-05-29T17:47:11.833Z,77.73
2018-05-29T17:49:39.636Z,77.56
2018-05-29T17:52:07.318Z,78.00
2018-05-29T17:54:35.164Z,77.56
2018-05-29T17:57:02.867Z,77.32
2018-05-29T17:59:30.485Z,78.00
2018-05-29T18:01:58.129Z,78.38
2018-05-29T18:04:25.921Z,78.17
2018-05-29T18:06:53.604Z,78.58
2018-05-29T18:09:21.217Z,78.58
2018-05-29T18:11:48.879Z,79.10
2018-05-29T18:14:16.641Z,78.97
2018-05-29T18:16:44.287Z,79.38
2018-05-29T18:19:11.956Z,79.40
2018-05-29T18:21:39.753Z,79.40
2018-05-29T18:24:07.429Z,80.03
2018-05-29T18:26:35.172Z,80.38
2018-05-29T18:29:02.875Z,80.56
2018-05-29T18:31:30.510Z,79.99
2018-05-29T18:33:58.148Z,80.02
2018-05-29T18:36:25.744Z,79.56
2018-05-29T18:38:53.440Z,79.08
2018-05-29T18:41:21.081Z,78.57
2018-05-29T18:43:48.746Z,78.87
2018-05-29T18:46:16.374Z,78.44
2018-05-29T18:48:44.127Z,78.58
2018-05-29T18:51:11.780Z,78.41
2018-05-29T18:53:39.428Z,78.41
2018-05-29T18:56:07.078Z,77.90
2018-05-29T18:58:34.913Z,77.63
2018-05-29T19:01:03.621Z,78.86
2018-05-29T19:03:31.305Z,79.42
2018-05-29T19:05:59.028Z,79.85
2018-05-29T19:08:26.635Z,79.61
2018-05-29T19:10:54.289Z,80.03
2018-05-29T19:13:22.158Z,80.76
2018-05-29T19:15:49.959Z,80.72
2018-05-29T19:18:17.564Z,80.86
2018-05-29T19:20:45.233Z,80.99
2018-05-29T19:23:12.944Z,80.31
2018-05-29T19:25:40.530Z,80.12
2018-05-29T19:28:08.237Z,80.08
2018-05-29T19:30:35.875Z,79.86
2018-05-29T19:33:03.493Z,80.04
2018-05-29T19:35:31.266Z,79.14
2018-05-29T19:37:58.873Z,78.88
2018-05-29T19:40:26.524Z,78.26
2018-05-29T19:42:54.141Z,77.45
2018-05-29T19:45:21.782Z,77.24
2018-05-29T19:47:49.536Z,76.91
2018-05-29T19:50:17.148Z,77.18
2018-05-29T19:52:44.788Z,76.79
2018-05-29T19:57:39.400Z,75.65
2018-05-29T20:00:07.014Z,75.69
2018-05-29T20:02:34.664Z,75.23
2018-05-29T20:05:02.281Z,75.35
2018-05-29T20:07:29.917Z,75.13
2018-05-29T20:09:57.560Z,74.94
2018-05-29T20:12:25.205Z,75.49
2018-05-29T20:14:52.892Z,75.76
2018-05-29T20:17:31.453Z,75.83
2018-05-29T20:19:59.059Z,75.38
2018-05-29T20:22:26.698Z,74.68
2018-05-29T20:24:54.320Z,74.45
2018-05-29T20:27:21.933Z,74.46
2018-05-29T20:29:49.740Z,73.22
2018-05-29T20:32:17.338Z,73.17
2018-05-29T20:34:44.984Z,72.89
2018-05-29T20:37:12.653Z,72.87
2018-05-29T20:39:40.293Z,73.54
2018-05-29T20:42:07.909Z,73.61
2018-05-29T20:44:35.558Z,74.73
2018-05-29T20:47:03.204Z,74.91
2018-05-29T20:49:30.837Z,75.52
2018-05-29T20:51:58.437Z,75.61
2018-05-29T20:54:26.124Z,75.59
2018-05-29T20:56:53.715Z,74.35
2018-05-29T20:59:21.422Z,73.72
2018-05-29T21:01:49.023Z,73.19
2018-05-29T21:04:16.658Z,72.23
2018-05-29T21:06:44.246Z,72.83
2018-05-29T21:09:11.906Z,73.04
2018-05-29T21:11:39.505Z,73.53
2018-05-29T21:14:07.133Z,73.61
2018-05-29T21:16:34.805Z,73.69
2018-05-29T21:19:02.412Z,73.78
2018-05-29T21:21:30.044Z,74.08
2018-05-29T21:23:57.657Z,74.40
2018-05-29T21:26:25.316Z,74.69
2018-05-29T21:28:52.958Z,74.65
2018-05-29T21:31:20.661Z,74.34
2018-05-29T21:33:48.279Z,74.56
2018-05-29T21:36:15.904Z,74.76
2018-05-29T21:38:43.576Z,75.03
2018-05-29T21:41:11.381Z,75.08
2018-05-29T21:43:38.980Z,75.57
2018-05-29T21:46:06.618Z,75.90
2018-05-29T21:48:34.233Z,76.25
2018-05-29T21:51:01.829Z,75.86
2018-05-29T21:53:29.577Z,75.85
2018-05-29T21:55:57.202Z,75.98
2018-05-29T21:58:24.832Z,75.47
2018-05-29T22:00:52.448Z,75.41
2018-05-29T22:03:20.097Z,75.10
2018-05-29T22:05:47.700Z,75.06
2018-05-29T22:08:15.332Z,74.75
2018-05-29T22:10:42.931Z,75.16
2018-05-29T22:13:10.617Z,75.47
2018-05-29T22:15:38.242Z,75.71
2018-05-29T22:18:05.853Z,75.59
2018-05-29T22:20:33.504Z,75.33
2018-05-29T22:23:01.141Z,74.39
2018-05-29T22:25:28.929Z,74.62
2018-05-29T22:27:56.542Z,74.99
2018-05-29T22:30:24.249Z,75.25
2018-05-29T22:32:51.821Z,76.12
2018-05-29T22:35:19.453Z,75.58
2018-05-29T22:37:47.077Z,75.32
2018-05-29T22:40:14.696Z,75.77
2018-05-29T22:42:42.290Z,75.48
2018-05-29T22:45:10.126Z,75.85
2018-05-29T22:47:37.736Z,76.28
2018-05-29T22:50:05.365Z,76.83
2018-05-29T22:52:32.953Z,76.73
2018-05-29T22:55:00.585Z,76.40
2018-05-29T22:57:28.200Z,76.64
2018-05-29T22:59:55.823Z,76.60
2018-05-29T23:02:23.429Z,76.11
2018-05-29T23:04:51.080Z,76.19
2018-05-29T23:07:18.696Z,76.24
2018-05-29T23:09:46.292Z,75.71
2018-05-29T23:12:14.001Z,75.94
2018-05-29T23:14:41.764Z,76.42
2018-05-29T23:17:09.601Z,77.06
2018-05-29T23:19:37.224Z,77.54
2018-05-29T23:22:04.868Z,77.97
2018-05-29T23:24:32.459Z,77.83
2018-05-29T23:27:00.133Z,77.86
2018-05-29T23:29:27.723Z,78.34
2018-05-29T23:31:55.353Z,78.03
2018-05-29T23:34:22.957Z,78.25
2018-05-29T23:36:50.608Z,78.19
2018-05-29T23:39:18.227Z,77.55
2018-05-29T23:41:45.896Z,77.54
2018-05-29T23:44:13.496Z,77.04
2018-05-29T23:46:41.133Z,76.62
2018-05-29T23:49:08.733Z,76.73
2018-05-29T23:51:36.374Z,76.82
2018-05-29T23:54:03.993Z,76.54
2018-05-29T23:56:31.593Z,77.39
2018-05-29T23:58:59.232Z,77.91
